Accueil
METAR-TAF:

METAR-TAF

Aéroports :

Aérodrome de Granges

Granges, Suisse

latitude: 47-10-53N, longitude: 007-24-59E, altitude: 430 m

Observation

Le bulletin a été fait il y a 30 minutes, à 03:20 UTC
Vent 6 kt de nord-est
Température 11°C
Humidité 94%
Pression 1023 hPa
Visibilité 10 km ou plus

METAR: LSZG 120320Z AUTO 05006KT 9999 NSC 11/10 Q1023

Heure: 05:50 (03:50 UTC)

Prévision

Le bulletin a été fait il y a 13 heures et 25 minutes, à 14:25 UTC
Prévision valable du 11 à 15 UTC au 11 à 24 UTC
Vent 7 kt de nord-est
Visibilité 10 km ou plus
Quelques nuages à une hauteur de 5500 ft
Nuages fragmentés à une hauteur de 6500 ft
Evoluant progressivement
du 11 à 17 UTC au 11 à 20 UTC
Visibilité 10 km ou plus
pas de nuages en-dessous de 1500 mètres et pas de cumulonimbus.

TAF: LSZG 111425Z 1115/1124 04007KT 9999 FEW055 BKN065 BECMG 1117/1120 CAVOK

Observations et prévisions météorologiques de plus de 4000 aéroports (messages METAR et TAF).

Les stations disponibles sont représentées par des disques jaunes et rouges sur la carte.

Passer la souris dessus pour voir le nom de la station.

Cliquer dessus pour voir les observations et prévisions météorologiques.

Pour changer de carte: cliquez sur les boutons verts avec une croix noire pour zoomer, sur le bouton vert avec un tiret pour effectuer un zoom arrière, ou sur les flèches vertes pour les cartes adjacentes.


METAR-TAF: